Luca Ranieri

Chief Scout - Cesena
3 Dec 2028
Sunday
Process

Personality

Adaptability (14) Ambition (1) Controversy (5) Loyalty (19) Pressure (14) Professionalism (13) Sportsmanship (9) Temperament (7)

Profile

Coaching Style Democratic
License Continental A
Determination 7
Man Management 7
Motivating 10
Discipline 6
Job Satisfaction
100%
Fatigue
0%
Role Chief Scout
Wage 35.2K p/w
Contract 14.03.2029

Performance

Behaviour Good
Training Effectiveness
48%
Player Development
45%
Injury Prevention
35%
Tactical Implementation
25%

Recent Events

Assessed a player now
Attended a recruitment meeting now
Assessed a player now
Attended a recruitment meeting 7d ago
Assessed a player 7d ago
Assessed a player 7d ago
Assessed a player 7d ago
Assessed a player 14d ago

Currently Monitoring

201
Player Club Status Ability Confidence Watched Last Observed Latest Vote
Gideon Manaseh Ikorodu City Active 95 / 97 40% 4 02.12.2028 -
Tyson Pearce St. Louis CITY SC Active 92 / 99 40% 3 02.12.2028 -
Cheveyo Tsawa Club Brugge Active 127 / 145 40% 2 02.12.2028 -
Vitaly Bondarev Ural Active 103 / 99 40% 1 01.12.2028 -
David Weiss Omonoia Active 107 / 127 40% 1 01.12.2028 -
Salvador Blopá Wolverhampton Active 130 / 138 40% 1 01.12.2028 -
Giovanni Leoni Lincoln City Active 144 / 157 40% 2 28.11.2028 -
Andrija Bulatović Chamois Niortais Active 136 / 144 40% 2 28.11.2028 -
Harrison Armstrong Ipswich Town Active 139 / 143 40% 4 28.11.2028 -
Jan Bürger Northampton Town Active 121 / 131 40% 4 27.11.2028 -
Mateo Faure BATE Active 95 / 80 40% 4 27.11.2028 -
Estanislao López Colón Active 97 / 85 40% 5 27.11.2028 -
Tyler Fletcher Rotherham United Active 122 / 121 40% 11 26.11.2028 -
Chris Rigg West Ham United Active 138 / 145 40% 4 26.11.2028 -
Davide De Fraia Latina Active 95 / 95 40% 1 26.11.2028 -
Christos Mouzakitis Hull City Active 139 / 147 40% 5 23.11.2028 -
Veljko Milosavljević Bournemouth Active 148 / 147 40% 3 23.11.2028 -
Aytor Herrera Mineros de Guayana Active 90 / 76 40% 2 22.11.2028 -
Pietro La Torre Queens Park Rangers Active 101 / 112 40% 2 22.11.2028 -
Máximo Munarriz San Telmo Active 96 / 104 40% 2 19.11.2028 -
Felipe Pujol Vélez Active 116 / 118 40% 3 19.11.2028 -
Balagie Darboe FC Dallas Active 79 / 98 40% 1 17.11.2028 -
Trey Nyoni Rotherham United Active 144 / 151 40% 6 16.11.2028 -
Matías Magdaleno Estudiantes Active 117 / 134 40% 1 16.11.2028 -
Diego León Rotherham United Active 131 / 126 40% 3 15.11.2028 -
Johan Solstad-Nøis Tromso Active 94 / 101 40% 2 12.11.2028 -
Snyder Brunell Seattle Sounders Active 87 / 100 40% 2 12.11.2028 -
Ronan Kpakio AC Milan Active 123 / 125 40% 1 12.11.2028 -
José Neto Benfica Active 123 / 135 40% 1 11.11.2028 -
Matteo Palma Udinese Active 130 / 128 40% 1 09.11.2028 -
Mateo Caballero Defensor Sporting Active 94 / 94 40% 1 09.11.2028 -
Riquelme Thompson-Jones Accrington Stanley Active 114 / 130 40% 6 08.11.2028 -
Miguel Figueiredo Benfica Active 131 / 125 40% 7 07.11.2028 -
Onyeuche Ujunwa Ikorodu City Active 94 / 96 40% 6 07.11.2028 -
Eman Košpo Zorya Active 112 / 112 40% 2 06.11.2028 -
Germán Barbas Racing Santander Active 123 / 132 40% 1 06.11.2028 -
Björn Hedlöf Helsingborg Active 94 / 105 40% 2 04.11.2028 -
Luka Vušković Tottenham Active 149 / 146 40% 1 04.11.2028 -
Ayyoub Bouaddi Stoke City Active 150 / 156 40% 3 01.11.2028 -
Malte Heyde Esbjerg Active 110 / 116 40% 1 01.11.2028 -
Kiani Inge Groningen Active 113 / 124 40% 4 30.10.2028 -
Juan Camilo Córdoba Deportivo Pereira Active 89 / 100 40% 1 30.10.2028 -
Noah Markmann Esbjerg Active 125 / 124 40% 1 29.10.2028 -
Celías Ingenthron Platense Active 127 / 112 40% 1 28.10.2028 -
Anderson Acevedo Bogota Active 92 / 109 40% 2 27.10.2028 -
Louis Page Leicester City Active 132 / 151 40% 2 25.10.2028 -
Alessio Insignito Spezia Active 106 / 123 40% 1 25.10.2028 -
Matías Satas Grimsby Town Active 103 / 117 40% 1 25.10.2028 -
Martim Cunha Porto Active 117 / 111 40% 3 24.10.2028 -
Máximo Magnoli Ferro Carril Oeste Active 103 / 104 40% 2 24.10.2028 -
Yury Oyarzo Racing Active 104 / 102 40% 1 23.10.2028 -
Samuel Molano Patriotas Active 81 / 99 40% 1 23.10.2028 -
Andrey Ivlev Nizhniy Novgorod Active 109 / 112 40% 2 21.10.2028 -
Filip Reshane Stabaek Active 109 / 105 40% 1 21.10.2028 -
Ezra Mayers West Ham United Active 131 / 134 40% 4 15.10.2028 -
Alejandro Almaraz NK Celje Active 119 / 125 40% 1 15.10.2028 -
Harry Amass Manchester United Active 150 / 146 40% 1 14.10.2028 -
Daniel Banjaqui Benfica Active 134 / 125 40% 3 12.10.2028 -
Alessandro De Luca Sint-Truiden Active 98 / 94 40% 1 12.10.2028 -
Davinchi Getafe Active 121 / 120 40% 1 12.10.2028 -
Alexandr Derzhinskiy Slavia Mozyr Active 100 / 109 40% 1 11.10.2028 -
Agustín Medina Lanús Active 128 / 119 40% 2 06.10.2028 -
Andrei Racu Kasimpasa Active 98 / 90 40% 1 05.10.2028 -
Andrea Astrologo AlbinoLeffe Report Ready 103 / 93 76% 1 21.08.2028 -
Jamal Iddrissou Pergolettese Active 117 / 133 40% 2 31.07.2028 -
Lautaro Díaz San Martín Active 96 / 85 40% 1 31.07.2028 -
Giovanni Carbone Cosenza Active 85 / 82 40% 1 31.07.2028 -
Ben Broggio Mansfield Town Active 119 / 131 40% 3 26.07.2028 -
Shea Lacey Crystal Palace Active 133 / 132 40% 2 19.06.2028 -
Josh Nichols Oldham Athletic Active 120 / 132 40% 4 19.06.2028 -
Christian Aucelli Trento Lost 113 / 108 76% 1 19.06.2028 -
Ryan Oné Sheffield United Active 119 / 135 40% 1 19.06.2028 -
Luca Mazzeo Picerno Lost 107 / 98 76% 1 06.06.2028 -
Babis Kostoulas Oxford United Active 148 / 156 40% 6 31.05.2028 -
Amin Nabizada Exeter City Active 114 / 112 40% 3 31.05.2028 -
Eduard Ihnatov Ospitaletto Active 96 / 110 40% 3 31.05.2028 -
Igor Tyjon Barrow AFC Active 116 / 134 40% 2 30.05.2028 -
Leo Pecover Swindon Town Active 103 / 109 40% 1 30.05.2028 -
Alphadjo Cissé Lecce Active 136 / 143 40% 2 28.05.2028 -
Ryan Kavuma-McQueen Accrington Stanley Active 123 / 119 40% 2 27.05.2028 -
Mattia Esposito Virtus Verona Active 82 / 102 40% 1 25.05.2028 -
Eli Junior Kroupi Bournemouth Active 144 / 143 40% 4 24.05.2028 -
Henrique Carmo Sochi Active 124 / 149 40% 4 24.05.2028 -
Sindre Walle Egeli Udinese Active 143 / 142 40% 2 23.05.2028 -
Rio Ngumoha Plymouth Argyle Active 147 / 153 40% 3 23.05.2028 -
Gabe Forsyth Colchester United Active 114 / 121 40% 1 22.05.2028 -
Ryan McAidoo Oldham Athletic Active 128 / 122 40% 3 21.05.2028 -
Romelle Donovan Brentford Active 131 / 143 40% 3 20.05.2028 -
Tomás Peixoto Porto Active 104 / 96 40% 1 19.05.2028 -
Ibrahim Fullah Charlton Athletic Active 125 / 132 40% 1 19.05.2028 -
Gaël Lafont Dolomiti Bellunesi Active 100 / 118 40% 2 18.05.2028 -
Gabriel Mec Feirense Active 123 / 124 40% 1 18.05.2028 -
Fletcher Boyd Accrington Stanley Active 105 / 111 40% 1 17.05.2028 -
İsak Vural Audace Cerignola Active 125 / 116 40% 1 15.05.2028 -
Omar Khedr Gillingham Active 117 / 117 40% 2 12.05.2028 -
Mateus Mané Burnley Active 139 / 142 40% 1 12.05.2028 -
Andrea Luongo Trento Active 95 / 103 40% 2 10.05.2028 -
Luca Williams-Barnett Walsall Active 125 / 134 40% 1 01.05.2028 -
Jake Evans Crewe Alexandra Active 108 / 112 40% 2 30.04.2028 -
André Miranda Porto Active 117 / 118 40% 1 25.04.2028 -
Kerim Alajbegović Modena Active 136 / 142 40% 3 18.04.2028 -
Luke Brooke-Smith Chesterfield Active 99 / 105 40% 1 18.04.2028 -
Federico Matarán Giana Erminio Active 107 / 103 40% 7 08.04.2028 -
Nicolas Sport Recife Active 105 / 108 40% 1 08.04.2028 -
Olivier Mambwa Young Boys Active 109 / 128 40% 1 03.04.2028 -
Othniël Raterink Cagliari Active 120 / 129 40% 3 25.03.2028 -
Andrea Cogoni Cosenza Active 107 / 126 40% 1 25.03.2028 -
Olivier Leroux Mouscron Active 99 / 119 40% 3 21.03.2028 -
Claudio Martey Pianese Active 88 / 80 40% 1 21.03.2028 -
Orazio Pazienza Foggia Active 98 / 97 40% 1 19.03.2028 -
Abubakar Adams Aduana Stars Active 84 / 86 40% 2 15.03.2028 -
Simone Suppa Virtus Verona Active 87 / 91 40% 1 11.03.2028 -
Tobiáš Pališčák Zlin Active 99 / 104 40% 1 08.03.2028 -
Matvey Bardachev Zenit Active 110 / 106 40% 1 08.03.2028 -
Alessio Rizza Livorno Active 108 / 108 76% 1 10.01.2028 -
Mao Hosoya Santos Active 134 / 135 67% 1 01.01.2028 -
Bitello Universidad de Chile Active 135 / 135 68% 1 01.01.2028 -
Facundo Torres Millonarios Active 134 / 134 67% 1 01.01.2028 -
Matías Canedo Rampla Juniors Active 92 / 71 40% 1 31.12.2027 -
Josh Acheampong Everton Active 139 / 158 40% 2 20.12.2027 -
Luighi Palmeiras Active 110 / 128 40% 1 20.12.2027 -
Olívio Tomé Benfica Active 120 / 127 40% 1 20.12.2027 -
Matias Siltanen Malmo FF Active 119 / 141 40% 6 19.12.2027 -
Edison Gruezo Guadalajara Active 101 / 102 40% 1 19.12.2027 -
Emmanuel Ndubueze Shooting Stars Active 88 / 101 40% 5 15.12.2027 -
Nupe Godstime Bayelsa United Active 85 / 96 40% 2 15.12.2027 -
Gabriele Bertolini Vicenza Active 101 / 118 40% 2 13.12.2027 -
Francisco Marchant Colo-Colo Active 89 / 112 40% 1 13.12.2027 -
Victor Hernandez Santa Fe Active 120 / 136 40% 7 10.12.2027 -
Gianluca Prestianni Benfica Active 145 / 147 40% 3 10.12.2027 -
Joseph Abah Remo Stars Active 90 / 102 40% 2 08.12.2027 -
Pedro Baltika Active 138 / 154 40% 4 07.12.2027 -
Colin Guske Orlando City Active 104 / 110 40% 2 07.12.2027 -
Senny Mayulu Paris Saint-Germain Active 144 / 157 40% 1 06.12.2027 -
Giovanni Baroni Talleres Active 104 / 127 40% 2 04.12.2027 -
Joel Ezra Enyimba Active 99 / 108 40% 2 04.12.2027 -
Kabiru Abdullahi Barau Active 92 / 81 40% 3 03.12.2027 -
Dániel Pintér Inter Miami CF Active 94 / 90 40% 1 01.12.2027 -
Keyano Marrah Hammarby Active 88 / 100 40% 1 30.11.2027 -
Musa Malik Ikorodu City Active 84 / 96 40% 1 26.11.2027 -
Tiago Pucciarelli IF Elfsborg Active 106 / 98 40% 1 25.11.2027 -
Abdulrahman Hamisu Niger Tornadoes Active 87 / 103 40% 1 23.11.2027 -
Olger Escobar CF Montreal Active 93 / 85 40% 2 22.11.2027 -
Chimobi Igwilo Rangers International Active 85 / 96 40% 2 21.11.2027 -
Imran Musa Atvidaberg Active 90 / 82 40% 1 19.11.2027 -
Francisco Triver River Plate Active 84 / 106 40% 2 16.11.2027 -
Joel Medina Independiente Active 102 / 108 40% 1 13.11.2027 -
Matías Arias Vélez Active 122 / 134 40% 2 10.11.2027 -
Piero Cari Alianza Lima Active 94 / 88 40% 1 08.11.2027 -
Idris Ajiya Nasarawa United Active 91 / 84 40% 1 06.11.2027 -
Adrian Skogmar Malmo FF Active 120 / 138 40% 1 04.11.2027 -
Ruben Ramos LA Galaxy Active 92 / 103 40% 1 02.11.2027 -
Luis Yanes Real Cartagena Active 93 / 86 40% 1 02.11.2027 -
Sascha Britschgi AC Milan Active 123 / 143 40% 6 10.08.2027 -
Pedro Vian Seewald Dolomiti Bellunesi Active 95 / 112 40% 1 29.05.2027 -
Gady Beyuku Blackburn Rovers Active 109 / 128 40% 1 29.05.2027 -
Gonçalo Oliveira Benfica Active 115 / 128 40% 2 28.05.2027 -
Bade Aluko Leicester City Active 108 / 121 40% 2 28.05.2027 -
Charlie Gray Fleetwood Town Active 85 / 107 40% 4 26.05.2027 -
Jacopo Bacci Sorrento Active 94 / 118 40% 2 26.05.2027 -
Bence Dárdai VfL Wolfsburg Active 134 / 146 40% 4 25.05.2027 -
Tiago Freitas Benfica Active 113 / 106 40% 5 22.05.2027 -
Rhys Walters Port Vale Active 105 / 115 40% 2 16.05.2027 -
Leandro Martins Benfica Active 98 / 99 40% 3 15.05.2027 -
Andrea Bertoncini Triestina Active 87 / 87 40% 3 13.05.2027 -
Tommaso Cecotti Carpi Active 89 / 102 40% 2 12.05.2027 -
Alessandro Zoboletti Sambenedettese Active 96 / 106 40% 3 06.05.2027 -
Bernardo Lima Porto Active 102 / 119 40% 3 06.05.2027 -
Wessel Kuhn PSV Active 113 / 110 40% 1 03.05.2027 -
Samuele di Benedetto Twente Active 107 / 111 40% 1 26.04.2027 -
Riyad Idrissi Cagliari Active 126 / 131 40% 3 22.04.2027 -
Riley Owen Stevenage Active 105 / 107 40% 2 20.04.2027 -
David Ozoh Derby County Active 120 / 132 40% 3 19.04.2027 -
Rivaldo Mkhize Black Aces Active 92 / 83 40% 2 16.04.2027 -
Kazunari Kita Real Sociedad Active 102 / 109 40% 2 27.03.2027 -
Afriyie Sulemana WAFA Active 81 / 88 40% 1 23.03.2027 -
Maxim Radchenko Rostov Active 73 / 78 40% 1 23.03.2027 -
Mpho Khethang FC Diarra Active 77 / 93 40% 1 20.03.2027 -
Eivind Helland AC Milan Active 133 / 136 40% 1 11.03.2027 -
Samuele Diodato Lumezzane Active 90 / 89 40% 1 11.03.2027 -
Federico Valentini Forli Active 87 / 102 40% 1 10.03.2027 -
Amine Boukamir Charleroi Active 106 / 94 40% 1 08.03.2027 -
Dean Jali Platinum Stars Active 91 / 87 40% 1 07.03.2027 -
Francesco D'Alessio Cittadella Active 114 / 108 69% 1 07.01.2027 -
Sampson Dweh Mallorca Active 133 / 134 66% 1 01.01.2027 -
Brayan Gil Baltika Active 121 / 141 40% 2 29.12.2026 -
Etiosa Ighodaro Kaizer Chiefs Active 104 / 115 40% 1 29.12.2026 -
Martin Sekulić Ural Active 99 / 103 40% 1 27.12.2026 -
Nicolò Zaniolo Udinese Active 152 / 130 40% 2 26.12.2026 -
Giacomo Raspadori Atalanta Active 155 / 131 40% 1 26.12.2026 -
Jordan Zemura Udinese Active 131 / 139 40% 1 26.12.2026 -
Willem Geubbels Lecce Active 135 / 129 40% 2 24.12.2026 -
Giorgi Kvernadze Frosinone Active 128 / 113 40% 2 23.12.2026 -
Luis Caicedo Spartak 1918 Active 104 / 98 40% 1 23.12.2026 -
Mattia Felici Cagliari Active 138 / 119 40% 2 17.12.2026 -
Amin Sarr Hellas Verona Active 133 / 121 40% 3 16.12.2026 -
Mathys Tel Tottenham Active 148 / 136 40% 1 16.12.2026 -
David Romero Parma Active 117 / 134 40% 1 14.12.2026 -
Yeangel Montero Naxxar Lions Active 108 / 116 40% 1 14.12.2026 -
Talles Magno New York City Active 127 / 135 40% 1 09.12.2026 -
Gianluca Scamacca Atalanta Active 150 / 149 40% 1 07.12.2026 -